Time;durP1;ratioP1;P1;durP2;ratioP2;P2;SDS_P1;SDS_P2;PMS_P1;PMS_P2;Temp;Humidity;BMP_temperature;BMP_pressure;BME280_temperature;BME280_humidity;BME280_pressure;Samples;Min_cycle;Max_cycle;Signal;HPM_P1;HPM_P2
2023/03/20 01:28:38;;;;;;;20.85;7.75;;;;;;;8.85;100.00;101658.63;5420505;23;20107;-82
2023/03/20 01:31:04;;;;;;;17.70;8.20;;;;;;;8.86;100.00;101657.66;4944966;29;20028;-80
2023/03/20 01:33:30;;;;;;;17.00;7.63;;;;;;;8.85;100.00;101664.06;5025171;23;20063;-82
2023/03/20 01:35:56;;;;;;;14.93;7.38;;;;;;;8.85;100.00;101659.47;4866532;29;20036;-83
2023/03/20 01:38:26;;;;;;;21.42;8.75;;;;;;;8.85;100.00;101647.69;4910449;29;20040;-82
2023/03/20 01:41:11;;;;;;;15.32;8.07;;;;;;;8.65;100.00;101639.69;4940021;29;20051;-82
2023/03/20 01:43:36;;;;;;;20.27;8.43;;;;;;;8.80;100.00;101653.41;4955524;29;20047;-83
2023/03/20 01:46:08;;;;;;;18.85;8.52;;;;;;;8.76;100.00;101662.78;4923843;29;20032;-80
2023/03/20 01:48:49;;;;;;;18.25;8.38;;;;;;;8.69;100.00;101680.47;4924296;29;20048;-84
2023/03/20 01:51:22;;;;;;;21.02;9.30;;;;;;;8.68;100.00;101667.81;4907872;29;20035;-83
2023/03/20 01:53:50;;;;;;;;;;;;;;;8.64;100.00;101676.16;4920232;29;20055;-83
2023/03/20 01:56:18;;;;;;;20.85;9.02;;;;;;;8.59;100.00;101656.44;4942760;29;19923;-82
2023/03/20 01:58:49;;;;;;;23.45;9.60;;;;;;;8.44;100.00;101651.84;4921539;29;20016;-83
2023/03/20 02:01:16;;;;;;;20.92;9.05;;;;;;;8.44;100.00;101654.59;4941221;29;20044;-82
2023/03/20 02:03:44;;;;;;;19.63;8.55;;;;;;;8.48;100.00;101658.91;4953717;29;20032;-82
2023/03/20 02:06:10;;;;;;;18.60;9.50;;;;;;;8.50;100.00;101673.34;4928113;29;20025;-82
2023/03/20 02:08:44;;;;;;;23.20;9.38;;;;;;;8.49;100.00;101662.50;4971151;23;20060;-82
2023/03/20 03:13:57;;;;;;;30.95;14.00;;;;;;;7.57;100.00;101649.38;5884540;23;20026;-78
2023/03/20 03:16:30;;;;;;;41.78;14.63;;;;;;;7.45;100.00;101640.91;4959726;29;20031;-77
2023/03/20 03:19:02;;;;;;;41.20;15.60;;;;;;;7.41;100.00;101643.88;4962021;29;20047;-77
2023/03/20 03:21:29;;;;;;;37.08;14.73;;;;;;;7.29;100.00;101624.50;4943721;29;20059;-77
2023/03/20 03:23:55;;;;;;;40.38;15.45;;;;;;;7.40;100.00;101645.72;4928730;29;20051;-78
2023/03/20 03:26:26;;;;;;;36.45;15.10;;;;;;;7.41;100.00;101633.88;4914223;29;20016;-78
2023/03/20 03:28:58;;;;;;;44.00;15.95;;;;;;;7.31;100.00;101628.03;4945106;29;20034;-78
2023/03/20 03:31:25;;;;;;;38.95;14.45;;;;;;;7.26;100.00;101608.31;4917732;29;20030;-78
2023/03/20 03:33:55;;;;;;;42.03;15.52;;;;;;;7.29;100.00;101610.00;4959220;29;20020;-78
2023/03/20 03:59:40;;;;;;;38.80;14.77;;;;;;;7.23;100.00;101607.59;5159647;23;20054;-82
2023/03/20 04:02:07;;;;;;;32.30;13.57;;;;;;;7.14;100.00;101611.69;4957219;29;20087;-83
2023/03/20 04:04:36;;;;;;;35.63;14.40;;;;;;;7.12;100.00;101600.88;4935297;29;20063;-83
2023/03/20 04:07:01;;;;;;;35.22;13.50;;;;;;;7.13;100.00;101608.09;4953753;29;20448;-83
2023/03/20 04:09:27;;;;;;;37.60;14.98;;;;;;;7.13;100.00;101601.75;4955089;29;20047;-83
2023/03/20 04:11:53;;;;;;;33.97;12.95;;;;;;;7.11;100.00;101600.97;4922504;29;20036;-83
2023/03/20 04:14:19;;;;;;;35.15;13.82;;;;;;;7.05;100.00;101598.53;4936847;29;20108;-81
2023/03/20 04:16:45;;;;;;;30.65;13.15;;;;;;;6.95;100.00;101600.88;4941762;29;20091;-80
2023/03/20 04:19:10;;;;;;;32.95;12.10;;;;;;;6.92;100.00;101591.03;5077679;23;20051;-77
2023/03/20 05:27:41;;;;;;;25.50;8.88;;;;;;;6.74;100.00;101581.06;4925885;29;20040;-83
2023/03/20 05:30:07;;;;;;;29.05;9.95;;;;;;;6.72;100.00;101573.03;5229894;23;20071;-82
2023/03/20 05:32:35;;;;;;;25.73;10.30;;;;;;;6.80;100.00;101583.50;4924945;29;20047;-84
2023/03/20 05:35:00;;;;;;;23.10;9.68;;;;;;;6.82;100.00;101584.28;4936728;29;20023;-82
2023/03/20 05:37:26;;;;;;;28.48;10.02;;;;;;;6.82;100.00;101576.13;4935562;29;20071;-82
2023/03/20 05:39:51;;;;;;;23.33;9.95;;;;;;;6.83;100.00;101577.03;4901718;29;20040;-80
2023/03/20 05:42:17;;;;;;;25.70;10.57;;;;;;;6.87;100.00;101574.06;5077076;23;20063;-82
2023/03/20 05:44:42;;;;;;;25.52;9.27;;;;;;;6.81;100.00;101577.97;4944033;29;20159;-82
2023/03/20 05:47:08;;;;;;;30.67;10.07;;;;;;;6.78;100.00;101575.41;4944448;29;20047;-81
2023/03/20 05:49:34;;;;;;;27.05;9.52;;;;;;;6.78;100.00;101567.25;4928039;29;20044;-82
2023/03/20 05:51:59;;;;;;;28.45;9.65;;;;;;;6.81;100.00;101577.97;4898407;29;20044;-82
2023/03/20 05:54:25;;;;;;;22.63;9.70;;;;;;;6.79;100.00;101569.00;4916893;29;20105;-82
2023/03/20 05:56:50;;;;;;;21.45;9.38;;;;;;;6.90;100.00;101582.03;4929486;29;20039;-82
2023/03/20 05:59:16;;;;;;;26.63;9.77;;;;;;;6.89;100.00;101582.16;4947446;29;20047;-81
2023/03/20 06:01:41;;;;;;;23.77;9.50;;;;;;;6.86;100.00;101577.75;5031373;23;20078;-82
2023/03/20 06:04:07;;;;;;;26.58;9.75;;;;;;;6.89;100.00;101595.75;4875641;29;20047;-83
2023/03/20 06:06:36;;;;;;;24.50;9.77;;;;;;;6.90;100.00;101594.78;4887637;29;20067;-81
2023/03/20 06:09:03;;;;;;;22.70;9.45;;;;;;;6.99;100.00;101600.63;4911900;29;20618;-80
2023/03/20 06:11:28;;;;;;;33.80;10.05;;;;;;;6.98;100.00;101596.16;4918816;29;20040;-82
2023/03/20 06:13:58;;;;;;;27.13;10.27;;;;;;;7.05;100.00;101604.91;4891941;29;20564;-85
2023/03/20 06:16:25;;;;;;;20.73;8.65;;;;;;;7.08;100.00;101607.44;4860155;29;20032;-80
2023/03/20 06:18:51;;;;;;;23.05;9.07;;;;;;;7.08;100.00;101603.84;4902217;29;20119;-81
2023/03/20 06:21:16;;;;;;;28.42;9.25;;;;;;;7.04;100.00;101604.97;4884980;29;20064;-81
2023/03/20 06:23:42;;;;;;;17.95;8.57;;;;;;;7.05;100.00;101614.88;4918335;29;20111;-81
2023/03/20 06:26:10;;;;;;;25.45;9.05;;;;;;;7.13;100.00;101612.63;4901184;29;20047;-81
2023/03/20 06:28:36;;;;;;;28.13;9.50;;;;;;;7.06;100.00;101613.94;4869887;29;20035;-82
2023/03/20 06:31:02;;;;;;;23.92;8.68;;;;;;;7.05;100.00;101617.59;4871017;29;20041;-82
2023/03/20 06:33:27;;;;;;;26.77;10.88;;;;;;;7.11;100.00;101612.72;4893757;29;20036;-82
2023/03/20 06:35:53;;;;;;;30.98;9.95;;;;;;;7.20;100.00;101614.09;4858353;29;20043;-81
2023/03/20 06:38:19;;;;;;;24.38;8.98;;;;;;;7.13;100.00;101613.53;4884276;29;20036;-81
2023/03/20 06:40:44;;;;;;;22.10;9.43;;;;;;;7.25;100.00;101619.31;4884406;29;20040;-80
2023/03/20 06:43:11;;;;;;;22.77;9.45;;;;;;;7.22;100.00;101627.63;4886129;29;20032;-81
2023/03/20 06:45:37;;;;;;;25.67;9.27;;;;;;;7.23;100.00;101630.28;4880644;29;20033;-80
2023/03/20 06:48:10;;;;;;;19.70;9.43;;;;;;;7.24;100.00;101622.97;4870003;29;20162;-80
2023/03/20 06:50:36;;;;;;;29.85;9.13;;;;;;;7.30;100.00;101630.84;4902566;29;20046;-80
2023/03/20 06:53:02;;;;;;;26.08;9.43;;;;;;;7.33;100.00;101631.56;4916697;29;20075;-80
2023/03/20 06:55:27;;;;;;;21.45;9.27;;;;;;;7.49;100.00;101634.34;4897840;29;20054;-81
2023/03/20 06:57:53;;;;;;;29.40;9.45;;;;;;;7.53;100.00;101655.00;4876379;29;20134;-80
2023/03/20 07:00:20;;;;;;;23.48;7.32;;;;;;;7.40;100.00;101645.72;4881180;29;20068;-81
2023/03/20 07:02:47;;;;;;;28.02;8.13;;;;;;;7.46;100.00;101649.94;4912249;29;20385;-80
2023/03/20 07:05:12;;;;;;;20.60;8.95;;;;;;;7.47;100.00;101659.91;4882565;29;20131;-82
2023/03/20 07:07:38;;;;;;;21.67;8.70;;;;;;;7.54;100.00;101651.31;4872403;29;20128;-82
2023/03/20 07:10:04;;;;;;;24.40;8.32;;;;;;;7.56;100.00;101653.97;4879737;29;20051;-80
2023/03/20 07:12:29;;;;;;;22.25;8.30;;;;;;;7.59;100.00;101658.34;4893597;29;20044;-80
2023/03/20 07:14:55;;;;;;;24.02;8.27;;;;;;;7.61;100.00;101667.31;4916750;29;20071;-80
2023/03/20 07:17:22;;;;;;;25.20;8.38;;;;;;;7.62;100.00;101663.66;4874578;29;20032;-82
2023/03/20 07:19:47;;;;;;;22.08;7.68;;;;;;;7.63;100.00;101658.13;4916315;29;20036;-83
2023/03/20 07:22:42;;;;;;;19.75;8.23;;;;;;;7.80;100.00;101662.63;4882891;29;20127;-82
2023/03/20 07:25:09;;;;;;;27.48;7.30;;;;;;;7.79;100.00;101665.44;4896357;29;20132;-83
2023/03/20 07:27:35;;;;;;;21.35;8.05;;;;;;;7.85;100.00;101660.53;4906696;29;20043;-81
2023/03/20 07:30:01;;;;;;;25.38;7.97;;;;;;;7.79;100.00;101660.00;4900150;29;20134;-81
2023/03/20 07:32:27;;;;;;;29.52;8.45;;;;;;;7.77;100.00;101662.81;4878911;29;20079;-81
2023/03/20 07:34:52;;;;;;;23.73;7.40;;;;;;;7.77;100.00;101661.94;4881730;29;20492;-80
2023/03/20 07:37:18;;;;;;;21.48;7.75;;;;;;;7.76;100.00;101663.78;4891846;29;20095;-82
2023/03/20 07:39:44;;;;;;;17.65;7.35;;;;;;;7.79;100.00;101668.16;4897553;29;20059;-81
2023/03/20 07:42:09;;;;;;;22.77;7.20;;;;;;;7.70;100.00;101677.75;4868389;29;20492;-81
2023/03/20 07:44:35;;;;;;;20.85;7.85;;;;;;;7.71;100.00;101682.25;4868879;29;20047;-81
2023/03/20 07:47:00;;;;;;;23.63;7.28;;;;;;;7.77;100.00;101679.16;4884523;29;20040;-82
2023/03/20 07:49:26;;;;;;;21.83;8.23;;;;;;;7.82;100.00;101681.63;4880209;29;20047;-81
2023/03/20 07:51:55;;;;;;;18.42;7.07;;;;;;;7.94;100.00;101680.13;4893466;29;20043;-81
2023/03/20 07:54:21;;;;;;;16.10;7.05;;;;;;;7.81;100.00;101671.72;4893567;29;20036;-81
2023/03/20 07:56:46;;;;;;;18.17;7.70;;;;;;;7.91;100.00;101668.38;4896258;29;20040;-81
2023/03/20 07:59:12;;;;;;;18.15;6.85;;;;;;;7.80;100.00;101669.94;4899370;29;20114;-81
2023/03/20 08:01:38;;;;;;;20.95;7.57;;;;;;;7.98;100.00;101671.66;4912255;29;20071;-82
2023/03/20 08:04:03;;;;;;;20.30;5.97;;;;;;;7.95;100.00;101679.13;4935668;29;20051;-81
2023/03/20 08:06:29;;;;;;;23.85;7.78;;;;;;;8.02;100.00;101676.00;4935084;29;20075;-83
2023/03/20 08:08:56;;;;;;;25.55;7.50;;;;;;;8.13;100.00;101677.22;4913840;29;20027;-81
2023/03/20 08:11:21;;;;;;;21.60;7.47;;;;;;;8.22;100.00;101683.06;4939060;29;20099;-81
2023/03/20 08:13:47;;;;;;;27.25;7.50;;;;;;;8.30;100.00;101679.91;4924061;29;20055;-83
2023/03/20 08:16:14;;;;;;;18.42;6.78;;;;;;;8.29;100.00;101684.47;4939795;29;20036;-83
2023/03/20 08:18:40;;;;;;;15.60;6.97;;;;;;;8.27;100.00;101682.81;4920200;29;20039;-83
2023/03/20 08:21:05;;;;;;;16.70;6.00;;;;;;;8.12;100.00;101681.81;4915960;29;20036;-81
2023/03/20 08:23:32;;;;;;;19.30;6.72;;;;;;;8.29;100.00;101681.72;4885027;29;20063;-81
2023/03/20 08:25:58;;;;;;;22.27;7.30;;;;;;;8.23;100.00;101687.56;4918979;29;20095;-83
2023/03/20 08:28:23;;;;;;;15.55;5.25;;;;;;;8.10;100.00;101679.19;4931538;29;20040;-81
2023/03/20 08:30:49;;;;;;;24.08;6.55;;;;;;;8.09;100.00;101680.13;4904038;29;20444;-83
2023/03/20 08:33:16;;;;;;;15.90;6.82;;;;;;;8.21;100.00;101678.56;4911659;29;20054;-83
2023/03/20 08:35:43;;;;;;;16.63;5.57;;;;;;;8.17;100.00;101679.72;4919145;29;20043;-83
2023/03/20 08:38:12;;;;;;;20.00;6.60;;;;;;;8.35;100.00;101676.94;4935281;29;20035;-82
2023/03/20 08:40:40;;;;;;;23.48;6.50;;;;;;;8.25;100.00;101682.03;4901961;29;20020;-81
2023/03/20 08:43:06;;;;;;;19.48;7.15;;;;;;;8.41;100.00;101687.47;4913231;29;20038;-83
2023/03/20 08:45:31;;;;;;;20.27;6.13;;;;;;;8.39;100.00;101686.69;4900001;29;20032;-82
2023/03/20 08:47:57;;;;;;;22.10;6.45;;;;;;;8.24;100.00;101677.53;4917521;29;20509;-81
2023/03/20 08:50:22;;;;;;;19.05;6.18;;;;;;;8.40;100.00;101689.31;4901262;29;20035;-81
2023/03/20 08:52:48;;;;;;;16.08;5.80;;;;;;;8.32;100.00;101677.09;4898013;29;20047;-81
2023/03/20 08:55:15;;;;;;;23.17;6.97;;;;;;;8.45;100.00;101684.53;4933451;29;20039;-82
2023/03/20 08:57:40;;;;;;;22.63;6.18;;;;;;;8.47;100.00;101684.44;4934229;29;20031;-82
2023/03/20 09:00:10;;;;;;;19.27;6.75;;;;;;;8.44;100.00;101681.88;4918122;28;20062;-83
2023/03/20 09:02:36;;;;;;;23.55;6.78;;;;;;;8.39;100.00;101676.63;4937944;29;20372;-82
2023/03/20 09:05:02;;;;;;;75.80;9.27;;;;;;;8.33;100.00;101676.09;4921575;29;20051;-83
2023/03/20 09:07:28;;;;;;;23.33;6.60;;;;;;;8.51;100.00;101679.69;4909164;29;20118;-85
2023/03/20 09:09:54;;;;;;;21.45;5.70;;;;;;;8.47;100.00;101681.72;4930347;29;20040;-85
2023/03/20 09:12:19;;;;;;;27.80;6.20;;;;;;;8.61;100.00;101676.34;4920661;29;20042;-83
2023/03/20 09:14:45;;;;;;;15.20;5.40;;;;;;;8.58;100.00;101687.44;4919302;29;20115;-83
2023/03/20 09:17:10;;;;;;;19.52;7.20;;;;;;;8.70;100.00;101687.69;4905056;29;20075;-85
2023/03/20 09:19:42;;;;;;;18.67;6.47;;;;;;;8.75;100.00;101677.38;4920284;29;20487;-82
2023/03/20 09:22:07;;;;;;;18.08;5.57;;;;;;;8.64;100.00;101680.72;4913106;29;20062;-83
2023/03/20 09:24:33;;;;;;;18.83;5.80;;;;;;;8.66;100.00;101676.09;4919760;29;20484;-83
2023/03/20 09:26:59;;;;;;;24.35;6.00;;;;;;;8.56;100.00;101678.47;4885125;29;20431;-81
2023/03/20 09:29:25;;;;;;;20.23;6.22;;;;;;;8.61;100.00;101686.38;4899395;29;20082;-79
2023/03/20 09:31:54;;;;;;;17.95;4.90;;;;;;;8.40;100.00;101670.22;4890770;29;20032;-82
2023/03/20 09:34:20;;;;;;;18.73;5.05;;;;;;;8.45;100.00;101676.34;4919365;29;20038;-84
2023/03/20 09:36:46;;;;;;;18.83;6.60;;;;;;;8.64;100.00;101680.72;4919431;29;20039;-82
2023/03/20 09:39:11;;;;;;;28.30;5.90;;;;;;;8.72;100.00;101685.75;4924334;29;20407;-82
2023/03/20 09:41:38;;;;;;;22.92;5.72;;;;;;;8.58;100.00;101675.66;4905017;29;20116;-82
2023/03/20 09:44:07;;;;;;;22.63;6.15;;;;;;;8.74;100.00;101694.72;4901764;29;20032;-81
2023/03/20 09:46:57;;;;;;;20.38;5.65;;;;;;;8.60;100.00;101692.81;4930256;29;20158;-80
2023/03/20 09:49:47;;;;;;;20.58;5.57;;;;;;;8.62;100.00;101693.59;4918732;29;20164;-81
2023/03/20 09:52:24;;;;;;;17.98;5.25;;;;;;;8.56;100.00;101694.84;4937992;29;20043;-80
2023/03/20 09:54:55;;;;;;;17.45;4.82;;;;;;;8.58;100.00;101697.47;4934937;29;20035;-81
2023/03/20 09:57:39;;;;;;;15.63;5.05;;;;;;;8.68;100.00;101692.38;4919875;29;20072;-82
2023/03/20 10:00:11;;;;;;;14.35;5.25;;;;;;;8.45;100.00;101691.84;4923857;28;20028;-82
2023/03/20 10:02:49;;;;;;;18.95;5.75;;;;;;;8.59;100.00;101693.75;4927494;29;20039;-83
2023/03/20 10:05:23;;;;;;;19.45;4.93;;;;;;;8.54;100.00;101694.03;4941861;29;20547;-83
2023/03/20 10:07:55;;;;;;;17.35;4.38;;;;;;;8.37;100.00;101694.09;4927243;29;20103;-81
2023/03/20 10:10:40;;;;;;;10.23;2.23;;;;;;;8.09;100.00;101704.69;4929328;29;20058;-82
2023/03/20 10:13:33;;;;;;;9.77;3.00;;;;;;;8.15;100.00;101705.28;4949476;29;20057;-83
2023/03/20 10:16:18;;;;;;;9.30;3.13;;;;;;;8.24;100.00;101702.06;4933281;29;20063;-83
2023/03/20 10:19:15;;;;;;;12.43;4.68;;;;;;;8.36;100.00;101687.75;4933360;29;20011;-84
2023/03/20 10:21:47;;;;;;;17.95;4.20;;;;;;;8.36;100.00;101697.78;4944250;29;20151;-83
2023/03/20 10:24:30;;;;;;;14.40;4.78;;;;;;;8.41;100.00;101690.19;4916786;29;20444;-83
2023/03/20 10:27:12;;;;;;;18.45;5.22;;;;;;;8.41;100.00;101688.38;4915466;29;20028;-82
2023/03/20 10:30:04;;;;;;;12.32;4.15;;;;;;;8.36;100.00;101686.84;4897904;29;20070;-81
2023/03/20 10:32:42;;;;;;;19.50;5.32;;;;;;;8.42;100.00;101681.06;4919652;29;20047;-81
2023/03/20 10:35:32;;;;;;;12.52;4.45;;;;;;;8.56;100.00;101691.19;4940514;29;20031;-82
2023/03/20 10:38:07;;;;;;;21.20;4.95;;;;;;;8.56;100.00;101672.09;4934577;29;20042;-83
2023/03/20 10:40:37;;;;;;;20.77;5.53;;;;;;;8.42;100.00;101670.13;4938832;29;20039;-83
2023/03/20 10:43:15;;;;;;;17.08;5.05;;;;;;;8.54;100.00;101671.31;4907703;29;20487;-80
2023/03/20 10:45:47;;;;;;;16.88;4.95;;;;;;;8.63;100.00;101670.78;4918687;29;20473;-82
2023/03/20 10:48:21;;;;;;;20.23;5.43;;;;;;;8.84;100.00;101665.94;4934840;29;20043;-83
2023/03/20 10:50:52;;;;;;;18.88;5.47;;;;;;;8.95;100.00;101668.91;4905703;29;20067;-84
2023/03/20 10:53:43;;;;;;;15.40;5.25;;;;;;;8.99;100.00;101665.00;4917885;29;20043;-82
2023/03/20 10:56:14;;;;;;;13.75;3.97;;;;;;;8.75;100.00;101664.59;4916723;29;20059;-82
2023/03/20 10:58:43;;;;;;;21.40;4.82;;;;;;;8.87;100.00;101664.84;4933388;29;20118;-82
2023/03/20 11:01:09;;;;;;;14.93;3.95;;;;;;;8.67;100.00;101658.72;4937505;28;20144;-83
2023/03/20 11:03:38;;;;;;;15.88;3.22;;;;;;;8.55;100.00;101662.16;4903298;29;20035;-83
2023/03/20 11:06:27;;;;;;;12.77;4.35;;;;;;;8.61;100.00;101661.81;4917853;29;20070;-83
2023/03/20 11:08:53;;;;;;;12.00;4.65;;;;;;;8.86;100.00;101660.38;4915769;29;20060;-81
2023/03/20 11:11:25;;;;;;;17.95;4.95;;;;;;;8.95;100.00;101663.47;4919446;29;20031;-82
2023/03/20 11:13:51;;;;;;;18.17;4.90;;;;;;;8.73;100.00;101662.94;4936315;29;20046;-82
2023/03/20 11:16:23;;;;;;;18.08;4.85;;;;;;;8.63;100.00;101670.78;4930997;29;20031;-82
2023/03/20 11:18:51;;;;;;;14.13;4.93;;;;;;;8.67;100.00;101672.34;4935228;29;20043;-81
2023/03/20 11:21:30;;;;;;;15.57;4.95;;;;;;;8.43;100.00;101655.56;4904492;29;20052;-82
2023/03/20 11:23:56;;;;;;;15.65;3.78;;;;;;;8.41;100.00;101658.34;4886826;29;20052;-82
2023/03/20 11:26:40;;;;;;;14.48;5.18;;;;;;;8.73;100.00;101663.81;4919786;29;20042;-82
2023/03/20 11:29:14;;;;;;;25.27;4.60;;;;;;;8.79;100.00;101662.59;4919654;29;20036;-82
2023/03/20 11:31:40;;;;;;;16.73;3.88;;;;;;;8.64;100.00;101657.06;4930740;29;20058;-82
2023/03/20 11:34:06;;;;;;;15.10;3.88;;;;;;;8.72;100.00;101659.31;4904201;29;20028;-81
2023/03/20 11:36:33;;;;;;;15.32;4.93;;;;;;;8.65;100.00;101652.47;4935861;29;20042;-82
2023/03/20 11:39:14;;;;;;;16.23;4.07;;;;;;;8.83;100.00;101643.19;4936315;29;20495;-82
2023/03/20 11:41:48;;;;;;;17.63;3.83;;;;;;;8.78;100.00;101638.97;4903572;29;20099;-82
2023/03/20 11:44:34;;;;;;;11.55;3.67;;;;;;;8.76;100.00;101639.06;4934137;29;20376;-81
2023/03/20 11:47:05;;;;;;;12.93;3.67;;;;;;;8.74;100.00;101623.75;4927796;29;20035;-83
2023/03/20 11:49:32;;;;;;;16.95;5.00;;;;;;;8.88;100.00;101628.41;4917030;29;20051;-81
2023/03/20 11:52:13;;;;;;;18.40;4.32;;;;;;;8.83;100.00;101621.34;4904279;29;20055;-82
2023/03/20 11:54:47;;;;;;;18.75;4.75;;;;;;;8.91;100.00;101623.63;4914965;29;20558;-82
2023/03/20 11:57:34;;;;;;;16.55;4.78;;;;;;;9.07;100.00;101617.22;4919119;29;20071;-82
2023/03/20 12:00:06;;;;;;;15.20;4.35;;;;;;;9.08;100.00;101608.94;4934673;28;20046;-82
2023/03/20 12:02:35;;;;;;;13.13;3.97;;;;;;;9.11;100.00;101616.09;4912389;29;20027;-83
2023/03/20 12:05:38;;;;;;;13.98;4.20;;;;;;;9.19;100.00;101609.16;4880519;29;20377;-83
2023/03/20 12:08:23;;;;;;;13.57;4.82;;;;;;;9.28;100.00;101612.31;4891975;29;20039;-83
2023/03/20 12:11:02;;;;;;;11.23;3.92;;;;;;;9.18;100.00;101603.78;4918032;29;20027;-82
2023/03/20 12:13:34;;;;;;;14.65;4.05;;;;;;;9.26;100.00;101606.94;4934730;29;20392;-84
2023/03/20 12:16:12;;;;;;;19.40;5.22;;;;;;;9.44;100.00;101610.38;4916836;29;20540;-83
2023/03/20 12:18:45;;;;;;;14.52;4.60;;;;;;;9.53;100.00;101611.69;4910194;29;20515;-81
2023/03/20 12:21:23;;;;;;;17.35;4.93;;;;;;;9.53;100.00;101609.81;4920195;29;20031;-83
2023/03/20 12:24:10;;;;;;;18.48;4.93;;;;;;;9.65;100.00;101599.97;4902426;29;20174;-83
2023/03/20 12:26:41;;;;;;;16.08;4.70;;;;;;;9.79;100.00;101609.13;4920137;29;20057;-82
2023/03/20 12:29:30;;;;;;;19.50;5.03;;;;;;;9.92;100.00;101608.28;4935789;29;20031;-82
2023/03/20 12:32:02;;;;;;;23.75;4.65;;;;;;;9.57;100.00;101596.84;4903954;29;20487;-82
2023/03/20 12:34:40;;;;;;;17.08;5.07;;;;;;;9.98;100.00;101603.38;4907680;29;20039;-83
2023/03/20 12:37:10;;;;;;;24.00;5.25;;;;;;;9.85;100.00;101601.41;4930910;29;20047;-82
2023/03/20 12:39:55;;;;;;;25.02;5.78;;;;;;;9.93;100.00;101595.47;4920677;29;20063;-83
2023/03/20 12:42:53;;;;;;;16.52;4.95;;;;;;;9.81;100.00;101597.13;4904635;29;20452;-83
2023/03/20 12:45:20;;;;;;;14.13;4.97;;;;;;;9.68;100.00;101596.16;4892561;29;20078;-81
2023/03/20 12:48:17;;;;;;;19.58;6.97;;;;;;;9.85;100.00;101590.47;4905146;29;20031;-83
2023/03/20 12:51:01;;;;;;;23.23;6.15;;;;;;;9.91;100.00;101589.22;4938812;29;20376;-82
2023/03/20 12:53:37;;;;;;;20.88;6.15;;;;;;;9.74;100.00;101582.97;4920629;29;20122;-81
2023/03/20 12:56:22;;;;;;;16.25;5.45;;;;;;;9.86;100.00;101588.63;4904911;29;20107;-81
2023/03/20 12:59:06;;;;;;;25.20;6.20;;;;;;;10.11;100.00;101585.19;4919665;29;20037;-83
2023/03/20 13:01:44;;;;;;;16.77;6.15;;;;;;;10.02;100.00;101583.94;4919464;29;20055;-82
2023/03/20 13:04:40;;;;;;;17.27;6.07;;;;;;;9.74;100.00;101577.50;4913458;29;20488;-81
2023/03/20 13:07:40;;;;;;;18.00;5.18;;;;;;;10.00;100.00;101569.47;4922266;29;20035;-82
2023/03/20 13:10:18;;;;;;;19.42;6.13;;;;;;;10.01;100.00;101565.75;4922072;29;20542;-81
2023/03/20 13:13:03;;;;;;;27.40;5.60;;;;;;;9.75;100.00;101565.56;4935005;29;20043;-82
2023/03/20 13:15:34;;;;;;;19.10;5.68;;;;;;;9.88;100.00;101562.06;4936984;29;20491;-80
2023/03/20 13:18:21;;;;;;;24.92;5.88;;;;;;;10.02;100.00;101559.31;4922158;29;20032;-82
2023/03/20 13:20:53;;;;;;;25.60;6.20;;;;;;;10.05;100.00;101561.84;4921941;29;20482;-81
2023/03/20 13:23:28;;;;;;;21.48;6.13;;;;;;;9.86;100.00;101566.75;4920396;29;20038;-81
2023/03/20 13:26:12;;;;;;;26.00;5.63;;;;;;;10.05;100.00;101559.13;4936142;29;20525;-81
2023/03/20 13:29:13;;;;;;;29.48;5.47;;;;;;;9.94;100.00;101556.19;4924634;29;20063;-82
2023/03/20 13:31:47;;;;;;;17.58;5.68;;;;;;;9.99;100.00;101555.91;4936507;29;20078;-80
2023/03/20 13:34:19;;;;;;;27.48;6.50;;;;;;;10.02;100.00;101559.31;4920958;29;20048;-82
2023/03/20 13:37:04;;;;;;;18.58;5.38;;;;;;;10.03;100.00;101552.84;4920739;29;20048;-81
2023/03/20 13:39:34;;;;;;;24.90;6.75;;;;;;;10.24;100.00;101552.41;4920130;29;20517;-83
2023/03/20 13:42:03;;;;;;;35.78;6.40;;;;;;;10.29;100.00;101552.97;4937886;29;20043;-81
2023/03/20 13:44:32;;;;;;;21.90;6.88;;;;;;;10.47;100.00;101540.81;4928376;29;20186;-81
2023/03/20 13:47:02;;;;;;;22.23;6.13;;;;;;;10.51;100.00;101546.09;4897927;29;20483;-81
2023/03/20 13:49:55;;;;;;;21.83;5.10;;;;;;;10.36;100.00;101543.41;4938555;29;20090;-81
2023/03/20 13:52:28;;;;;;;17.27;4.72;;;;;;;10.19;100.00;101544.50;4937603;29;20036;-82
2023/03/20 13:54:53;;;;;;;20.40;5.22;;;;;;;10.25;100.00;101549.56;4900913;29;20042;-81
2023/03/20 13:57:43;;;;;;;19.73;5.80;;;;;;;10.39;100.00;101537.72;4909470;29;20048;-81
2023/03/20 14:00:30;;;;;;;27.25;6.50;;;;;;;10.38;100.00;101532.34;4921134;28;20587;-81
2023/03/20 14:03:18;;;;;;;22.42;6.93;;;;;;;10.27;100.00;101519.38;4910787;29;20083;-81
2023/03/20 14:05:45;;;;;;;24.25;6.20;;;;;;;10.22;100.00;101525.16;4902007;29;20484;-82
2023/03/20 14:08:31;;;;;;;27.67;6.28;;;;;;;10.22;100.00;101525.16;4902721;29;20111;-82
2023/03/20 14:11:14;;;;;;;25.83;6.57;;;;;;;10.11;100.00;101520.38;4910019;29;20133;-82
2023/03/20 14:13:44;;;;;;;20.23;6.55;;;;;;;10.14;100.00;101515.72;4922739;29;20047;-81
2023/03/20 14:16:14;;;;;;;20.77;7.57;;;;;;;10.15;100.00;101515.59;4902145;29;20032;-82
2023/03/20 14:18:43;;;;;;;17.88;6.75;;;;;;;10.22;100.00;101521.53;4917785;29;20423;-81
2023/03/20 14:21:16;;;;;;;29.17;7.63;;;;;;;10.00;100.00;101513.88;4933094;29;20475;-81
2023/03/20 14:23:48;;;;;;;26.45;7.65;;;;;;;10.02;100.00;101518.28;4907742;29;20055;-82
2023/03/20 14:26:35;;;;;;;17.67;6.32;;;;;;;9.97;100.00;101509.50;4935894;29;20039;-82
2023/03/20 14:29:10;;;;;;;16.20;5.88;;;;;;;9.97;100.00;101512.22;4895603;29;20055;-80
2023/03/20 14:31:41;;;;;;;23.88;5.95;;;;;;;10.05;100.00;101508.97;4886330;29;20040;-82
2023/03/20 14:34:12;;;;;;;40.75;7.53;;;;;;;10.13;100.00;101514.81;4918427;29;20506;-82
2023/03/20 14:36:43;;;;;;;19.67;5.03;;;;;;;10.07;100.00;101504.28;4918377;29;20035;-82
2023/03/20 14:39:21;;;;;;;24.73;5.00;;;;;;;10.01;100.00;101497.34;4910443;29;20091;-82
2023/03/20 14:42:15;;;;;;;11.75;4.28;;;;;;;10.15;100.00;101495.53;4937694;29;20375;-82
2023/03/20 14:45:05;;;;;;;36.05;6.10;;;;;;;10.07;100.00;101499.69;4917179;29;20027;-82
2023/03/20 14:47:56;;;;;;;17.42;5.38;;;;;;;10.09;100.00;101492.25;4917344;29;20031;-80
2023/03/20 14:50:34;;;;;;;20.80;5.28;;;;;;;10.31;100.00;101485.31;4921564;29;20043;-83
2023/03/20 14:53:03;;;;;;;15.40;5.18;;;;;;;10.17;100.00;101486.25;4921561;29;20031;-82
2023/03/20 14:55:31;;;;;;;11.90;4.07;;;;;;;10.25;100.00;101486.63;4919922;29;20399;-83
2023/03/20 14:58:03;;;;;;;18.17;4.97;;;;;;;10.07;100.00;101477.81;4936876;29;20038;-83
2023/03/20 15:00:33;;;;;;;13.27;4.75;;;;;;;9.85;100.00;101474.72;4922573;29;20048;-83
2023/03/20 15:03:04;;;;;;;20.95;4.85;;;;;;;9.94;100.00;101482.34;4924197;29;20034;-83
2023/03/20 15:05:33;;;;;;;23.17;5.80;;;;;;;10.05;100.00;101468.81;4935007;29;20039;-82
2023/03/20 15:08:20;;;;;;;19.52;6.50;;;;;;;10.07;100.00;101468.72;4917377;29;20079;-83
2023/03/20 15:10:50;;;;;;;25.00;5.93;;;;;;;10.11;100.00;101478.47;4901326;29;20164;-83
2023/03/20 15:13:15;;;;;;;23.48;5.05;;;;;;;10.15;100.00;101471.81;4910108;29;20051;-82
2023/03/20 15:16:01;;;;;;;17.20;4.97;;;;;;;10.19;100.00;101469.75;4920910;29;20024;-83
2023/03/20 15:18:26;;;;;;;24.98;5.07;;;;;;;10.13;100.00;101468.28;4937133;29;20032;-82
2023/03/20 15:20:55;;;;;;;21.27;5.18;;;;;;;10.17;100.00;101469.84;4921079;29;20122;-82
2023/03/20 15:23:20;;;;;;;16.90;5.50;;;;;;;10.18;100.00;101467.97;4937289;29;20040;-83
2023/03/20 15:25:48;;;;;;;23.88;4.65;;;;;;;10.11;100.00;101462.91;4920917;29;20062;-83
2023/03/20 15:28:19;;;;;;;29.92;5.75;;;;;;;10.26;100.00;101461.03;4934281;29;20055;-83
2023/03/20 15:30:47;;;;;;;23.33;5.90;;;;;;;10.18;100.00;101452.44;4926042;29;20488;-83
2023/03/20 15:33:19;;;;;;;24.20;5.38;;;;;;;10.35;100.00;101459.53;4915053;29;20535;-83
2023/03/20 15:35:45;;;;;;;21.75;4.53;;;;;;;10.20;100.00;101447.75;4906139;29;20071;-82